createdAt,value
2023-04-28T00:03:11.261Z,95643.00
2023-04-28T00:08:39.317Z,95641.00
2023-04-28T00:14:07.109Z,95635.00
2023-04-28T00:19:34.939Z,95636.00
2023-04-28T00:25:03.292Z,95630.00
2023-04-28T00:30:31.729Z,95626.00
2023-04-28T00:36:03.764Z,95619.00
2023-04-28T00:41:35.271Z,95605.00
2023-04-28T00:47:03.259Z,95610.00
2023-04-28T00:52:31.631Z,95608.00
2023-04-28T00:57:59.961Z,95607.00
2023-04-28T01:03:28.191Z,95605.00
2023-04-28T01:08:57.225Z,95607.00
2023-04-28T01:14:25.739Z,95600.00
2023-04-28T01:19:53.746Z,95590.00
2023-04-28T01:25:21.539Z,95583.00
2023-04-28T01:30:49.557Z,95588.00
2023-04-28T01:36:17.421Z,95577.00
2023-04-28T01:41:45.220Z,95575.00
2023-04-28T01:47:13.094Z,95573.00
2023-04-28T01:52:40.983Z,95565.00
2023-04-28T01:58:08.908Z,95575.00
2023-04-28T02:03:37.254Z,95572.00
2023-04-28T02:09:05.637Z,95573.00
2023-04-28T02:14:34.698Z,95570.00
2023-04-28T02:20:02.506Z,95581.00
2023-04-28T02:25:30.394Z,95578.00
2023-04-28T02:31:09.830Z,95582.00
2023-04-28T02:36:37.723Z,95584.00
2023-04-28T02:42:05.713Z,95572.00
2023-04-28T02:47:33.568Z,95559.00
2023-04-28T02:53:01.819Z,95566.00
2023-04-28T02:58:29.774Z,95566.00
2023-04-28T03:03:57.771Z,95539.00
2023-04-28T03:09:25.843Z,95533.00
2023-04-28T03:14:53.711Z,95534.00
2023-04-28T03:20:21.641Z,95524.00
2023-04-28T03:25:49.862Z,95535.00
2023-04-28T03:31:20.400Z,95538.00
2023-04-28T03:36:48.360Z,95544.00
2023-04-28T03:42:24.812Z,95535.00
2023-04-28T03:48:18.607Z,95522.00
2023-04-28T03:53:47.055Z,95532.00
2023-04-28T03:59:15.259Z,95529.00
2023-04-28T04:04:44.168Z,95529.00
2023-04-28T04:10:12.372Z,95526.00
2023-04-28T04:15:43.171Z,95529.00
2023-04-28T04:21:11.346Z,95532.00
2023-04-28T04:26:39.278Z,95541.00
2023-04-28T04:32:23.050Z,95516.00
2023-04-28T04:37:53.088Z,95509.00
2023-04-28T04:43:21.482Z,95532.00
2023-04-28T04:48:51.556Z,95523.00
2023-04-28T04:54:19.338Z,95530.00
2023-04-28T04:59:47.784Z,95523.00
2023-04-28T05:05:22.167Z,95520.00
2023-04-28T05:11:28.743Z,95543.00
2023-04-28T05:16:57.212Z,95542.00
2023-04-28T05:22:33.748Z,95545.00
2023-04-28T05:28:07.458Z,95554.00
2023-04-28T05:33:35.517Z,95558.00
2023-04-28T05:39:03.491Z,95550.00
2023-04-28T05:44:31.963Z,95556.00
2023-04-28T05:50:01.007Z,95557.00
2023-04-28T05:55:29.456Z,95555.00
2023-04-28T06:00:57.618Z,95538.00
2023-04-28T06:06:27.846Z,95544.00
2023-04-28T06:11:56.060Z,95574.00
2023-04-28T06:17:24.395Z,95566.00
2023-04-28T06:22:52.346Z,95559.00
2023-04-28T06:28:20.320Z,95546.00
2023-04-28T06:33:48.222Z,95554.00
2023-04-28T06:39:16.250Z,95553.00
2023-04-28T06:44:45.459Z,95545.00
2023-04-28T06:50:13.565Z,95535.00
2023-04-28T06:55:42.599Z,95519.00
2023-04-28T07:01:12.309Z,95522.00
2023-04-28T07:06:40.676Z,95526.00
2023-04-28T07:12:08.862Z,95522.00
2023-04-28T07:17:37.071Z,95523.00
2023-04-28T07:23:05.107Z,95515.00
2023-04-28T07:28:33.197Z,95508.00
2023-04-28T07:34:01.612Z,95507.00
2023-04-28T07:39:31.641Z,95503.00
2023-04-28T07:45:00.154Z,95514.00
2023-04-28T07:50:31.222Z,95508.00
2023-04-28T07:55:59.632Z,95517.00
2023-04-28T08:01:27.687Z,95523.00
2023-04-28T08:06:55.760Z,95526.00
2023-04-28T08:12:23.678Z,95530.00
2023-04-28T08:17:52.160Z,95515.00
2023-04-28T08:23:20.607Z,95518.00
2023-04-28T08:28:48.488Z,95516.00
2023-04-28T08:34:16.830Z,95514.00
2023-04-28T08:39:44.770Z,95500.00
2023-04-28T08:45:16.745Z,95500.00
2023-04-28T08:50:50.128Z,95489.00
2023-04-28T08:56:19.257Z,95496.00
2023-04-28T09:01:50.080Z,95489.00
2023-04-28T09:07:20.402Z,95495.00
2023-04-28T09:12:53.513Z,95483.00
2023-04-28T09:18:21.572Z,95470.00
2023-04-28T09:23:51.001Z,95478.00
2023-04-28T09:29:20.220Z,95471.00
2023-04-28T09:34:50.842Z,95473.00
2023-04-28T09:40:18.872Z,95471.00
2023-04-28T09:45:46.851Z,95476.00
2023-04-28T09:51:21.864Z,95474.00
2023-04-28T09:56:51.787Z,95461.00
2023-04-28T10:02:42.662Z,95462.00
2023-04-28T10:08:10.931Z,95448.00
2023-04-28T10:13:39.156Z,95462.00
2023-04-28T10:19:09.371Z,95453.00
2023-04-28T10:25:29.873Z,95448.00
2023-04-28T10:31:20.955Z,95440.00
2023-04-28T10:36:55.621Z,95440.00
2023-04-28T10:42:56.902Z,95436.00
2023-04-28T10:48:34.893Z,95431.00
2023-04-28T10:54:08.873Z,95427.00
2023-04-28T10:59:36.611Z,95438.00
2023-04-28T11:05:15.479Z,95437.00
2023-04-28T11:11:15.012Z,95435.00
2023-04-28T11:16:56.534Z,95436.00
2023-04-28T11:22:25.355Z,95435.00
2023-04-28T11:28:05.371Z,95448.00
2023-04-28T11:33:37.176Z,95441.00
2023-04-28T11:39:11.437Z,95445.00
2023-04-28T11:44:55.151Z,95438.00
2023-04-28T11:50:38.895Z,95434.00
2023-04-28T11:56:10.265Z,95441.00
2023-04-28T12:01:53.078Z,95440.00
2023-04-28T12:07:23.108Z,95441.00
2023-04-28T12:12:53.152Z,95442.00
2023-04-28T12:18:21.242Z,95435.00
2023-04-28T12:23:50.337Z,95447.00
2023-04-28T12:29:41.936Z,95432.00
2023-04-28T12:35:10.395Z,95448.00
2023-04-28T12:40:38.177Z,95445.00
2023-04-28T12:46:08.866Z,95463.00
2023-04-28T12:51:39.739Z,95466.00
2023-04-28T12:57:08.007Z,95465.00
2023-04-28T13:02:38.434Z,95465.00
2023-04-28T13:08:10.097Z,95460.00
2023-04-28T13:13:38.992Z,95446.00
2023-04-28T13:19:09.778Z,95434.00
2023-04-28T13:24:37.535Z,95433.00
2023-04-28T13:30:06.563Z,95432.00
2023-04-28T13:35:37.204Z,95425.00
2023-04-28T13:41:09.241Z,95429.00
2023-04-28T13:46:38.739Z,95423.00
2023-04-28T13:52:06.638Z,95418.00
2023-04-28T13:57:36.904Z,95422.00
2023-04-28T14:03:05.317Z,95407.00
2023-04-28T14:08:33.293Z,95409.00
2023-04-28T14:14:01.410Z,95402.00
2023-04-28T14:19:29.636Z,95409.00
2023-04-28T14:24:58.694Z,95406.00
2023-04-28T14:30:27.413Z,95406.00
2023-04-28T14:36:10.889Z,95396.00
2023-04-28T14:41:38.928Z,95387.00
2023-04-28T14:47:11.134Z,95392.00
2023-04-28T14:52:39.116Z,95396.00
2023-04-28T14:58:07.567Z,95393.00
2023-04-28T15:03:35.882Z,95388.00
2023-04-28T15:09:04.248Z,95386.00
2023-04-28T15:14:33.110Z,95400.00
2023-04-28T15:20:01.191Z,95400.00
2023-04-28T15:25:31.730Z,95407.00
2023-04-28T15:31:05.030Z,95404.00
2023-04-28T15:36:43.816Z,95399.00
2023-04-28T15:42:13.311Z,95397.00
2023-04-28T15:47:44.090Z,95398.00
2023-04-28T15:53:13.230Z,95401.00
2023-04-28T15:58:41.162Z,95397.00
2023-04-28T16:04:09.615Z,95394.00
2023-04-28T16:09:37.727Z,95396.00
2023-04-28T16:15:08.815Z,95384.00
2023-04-28T16:20:39.215Z,95381.00
2023-04-28T16:26:08.421Z,95365.00
2023-04-28T16:31:36.808Z,95364.00
2023-04-28T16:37:21.752Z,95371.00
2023-04-28T16:42:52.839Z,95384.00
2023-04-28T16:48:23.190Z,95381.00
2023-04-28T16:53:54.265Z,95377.00
2023-04-28T16:59:36.964Z,95374.00
2023-04-28T17:05:19.341Z,95366.00
2023-04-28T17:11:02.132Z,95369.00
2023-04-28T17:16:42.799Z,95359.00
2023-04-28T17:22:23.775Z,95346.00
2023-04-28T17:27:51.848Z,95320.00
2023-04-28T17:33:22.144Z,95300.00
2023-04-28T17:38:53.219Z,95318.00
2023-04-28T17:44:21.290Z,95347.00
2023-04-28T17:49:49.311Z,95360.00
2023-04-28T17:55:18.664Z,95370.00
2023-04-28T18:00:47.589Z,95352.00
2023-04-28T18:06:16.308Z,95357.00
2023-04-28T18:11:44.350Z,95359.00
2023-04-28T18:17:12.418Z,95368.00
2023-04-28T18:22:41.481Z,95385.00
2023-04-28T18:28:10.473Z,95378.00
2023-04-28T18:33:39.321Z,95421.00
2023-04-28T18:44:56.909Z,95436.00
2023-04-28T18:50:25.346Z,95428.00
2023-04-28T18:55:58.848Z,95493.00
2023-04-28T19:01:27.550Z,95522.00
2023-04-28T19:06:56.973Z,95488.00
2023-04-28T19:12:25.093Z,95481.00
2023-04-28T19:17:57.265Z,95509.00
2023-04-28T19:23:25.770Z,95506.00
2023-04-28T19:28:58.347Z,95518.00
2023-04-28T19:34:27.791Z,95510.00
2023-04-28T19:39:55.811Z,95521.00
2023-04-28T19:45:26.639Z,95533.00
2023-04-28T19:50:54.670Z,95560.00
2023-04-28T19:56:23.468Z,95559.00
2023-04-28T20:01:51.926Z,95529.00
2023-04-28T20:07:22.197Z,95494.00
2023-04-28T20:12:51.295Z,95491.00
2023-04-28T20:18:21.383Z,95493.00
2023-04-28T20:23:50.940Z,95489.00
2023-04-28T20:29:19.028Z,95479.00
2023-04-28T20:34:48.009Z,95493.00
2023-04-28T20:40:16.451Z,95489.00
2023-04-28T20:45:53.947Z,95461.00
2023-04-28T20:51:25.325Z,95470.00
2023-04-28T20:56:54.931Z,95465.00
2023-04-28T21:02:24.706Z,95471.00
2023-04-28T21:07:52.779Z,95478.00
2023-04-28T21:13:21.623Z,95475.00
2023-04-28T21:18:59.427Z,95477.00
2023-04-28T21:24:27.650Z,95476.00
2023-04-28T21:29:56.771Z,95471.00
2023-04-28T21:35:28.934Z,95468.00
2023-04-28T21:40:56.990Z,95448.00
2023-04-28T21:46:26.139Z,95461.00
2023-04-28T21:51:54.198Z,95450.00
2023-04-28T21:57:22.077Z,95463.00
2023-04-28T22:02:51.502Z,95479.00
2023-04-28T22:08:20.586Z,95471.00
2023-04-28T22:13:48.383Z,95464.00
2023-04-28T22:19:20.533Z,95466.00
2023-04-28T22:24:50.138Z,95464.00
2023-04-28T22:30:18.550Z,95452.00
2023-04-28T22:35:46.744Z,95440.00
2023-04-28T22:41:14.581Z,95441.00
2023-04-28T22:46:43.638Z,95430.00
2023-04-28T22:52:11.580Z,95426.00
2023-04-28T22:57:39.486Z,95412.00
2023-04-28T23:03:07.440Z,95418.00
2023-04-28T23:08:35.960Z,95415.00
2023-04-28T23:14:04.928Z,95416.00
2023-04-28T23:19:33.104Z,95402.00
2023-04-28T23:25:01.105Z,95399.00
2023-04-28T23:30:29.011Z,95408.00
2023-04-28T23:35:56.910Z,95401.00
2023-04-28T23:41:24.927Z,95405.00
2023-04-28T23:47:00.571Z,95393.00
2023-04-28T23:52:28.370Z,95387.00
2023-04-28T23:57:56.114Z,95376.00
